createdAt,value
2018-03-26T00:01:26.039Z,18.97
2018-03-26T00:03:53.608Z,18.87
2018-03-26T00:06:21.225Z,17.37
2018-03-26T00:08:49.551Z,19.73
2018-03-26T00:11:17.122Z,18.40
2018-03-26T00:13:44.684Z,17.40
2018-03-26T00:16:12.313Z,17.33
2018-03-26T00:18:39.934Z,18.40
2018-03-26T00:21:07.523Z,17.87
2018-03-26T00:23:35.104Z,17.27
2018-03-26T00:26:02.743Z,17.20
2018-03-26T00:28:30.322Z,19.67
2018-03-26T00:30:57.913Z,17.73
2018-03-26T00:33:25.519Z,18.43
2018-03-26T00:35:53.127Z,17.53
2018-03-26T00:38:20.694Z,16.80
2018-03-26T00:40:48.291Z,16.37
2018-03-26T00:43:15.838Z,16.47
2018-03-26T00:45:43.429Z,16.93
2018-03-26T00:48:11.016Z,17.63
2018-03-26T00:50:38.650Z,17.33
2018-03-26T00:53:06.223Z,18.47
2018-03-26T00:55:33.796Z,18.63
2018-03-26T00:58:01.430Z,16.30
2018-03-26T01:00:29.098Z,17.83
2018-03-26T01:02:56.728Z,17.40
2018-03-26T01:05:24.318Z,18.03
2018-03-26T01:07:51.918Z,18.13
2018-03-26T01:10:19.470Z,17.23
2018-03-26T01:12:47.114Z,17.97
2018-03-26T01:15:14.682Z,17.23
2018-03-26T01:17:42.255Z,17.30
2018-03-26T01:20:09.810Z,16.87
2018-03-26T01:22:37.385Z,18.20
2018-03-26T01:25:05.001Z,17.33
2018-03-26T01:27:32.602Z,17.23
2018-03-26T01:30:00.162Z,18.10
2018-03-26T01:32:28.512Z,17.13
2018-03-26T01:34:56.089Z,17.33
2018-03-26T01:37:23.691Z,19.17
2018-03-26T01:39:51.331Z,18.17
2018-03-26T01:42:18.904Z,19.90
2018-03-26T01:44:46.481Z,18.70
2018-03-26T01:47:14.087Z,18.43
2018-03-26T01:49:42.455Z,19.33
2018-03-26T01:52:10.904Z,19.57
2018-03-26T01:54:38.583Z,19.60
2018-03-26T01:57:06.201Z,18.80
2018-03-26T01:59:33.781Z,19.43
2018-03-26T02:02:01.360Z,19.10
2018-03-26T02:04:28.928Z,19.37
2018-03-26T02:06:56.527Z,19.30
2018-03-26T02:09:24.138Z,19.10
2018-03-26T02:11:51.710Z,20.50
2018-03-26T02:14:19.321Z,19.83
2018-03-26T02:16:46.905Z,18.90
2018-03-26T02:19:14.531Z,18.67
2018-03-26T02:21:42.119Z,18.70
2018-03-26T02:24:09.703Z,19.83
2018-03-26T02:26:37.348Z,19.97
2018-03-26T02:29:04.871Z,20.13
2018-03-26T02:31:32.474Z,19.27
2018-03-26T02:34:00.138Z,19.00
2018-03-26T02:36:27.705Z,17.50
2018-03-26T02:38:55.294Z,18.83
2018-03-26T02:41:22.900Z,19.80
2018-03-26T02:43:50.492Z,19.73
2018-03-26T02:46:18.053Z,18.10
2018-03-26T02:48:46.416Z,19.90
2018-03-26T02:51:13.978Z,18.90
2018-03-26T02:53:41.602Z,20.50
2018-03-26T02:56:09.168Z,19.60
2018-03-26T02:58:36.762Z,19.80
2018-03-26T03:01:04.341Z,19.43
2018-03-26T03:03:32.744Z,19.97
2018-03-26T03:06:00.307Z,19.37
2018-03-26T03:08:27.904Z,20.10
2018-03-26T03:10:55.457Z,18.90
2018-03-26T03:13:23.063Z,20.37
2018-03-26T03:15:50.624Z,20.57
2018-03-26T03:18:18.207Z,20.63
2018-03-26T03:20:45.772Z,20.87
2018-03-26T03:23:13.358Z,21.47
2018-03-26T03:25:41.025Z,19.47
2018-03-26T03:28:08.637Z,19.17
2018-03-26T03:30:36.181Z,18.90
2018-03-26T03:33:03.770Z,21.40
2018-03-26T03:35:31.312Z,19.37
2018-03-26T03:37:58.879Z,19.37
2018-03-26T03:40:26.457Z,18.73
2018-03-26T03:42:54.051Z,19.70
2018-03-26T03:45:21.614Z,19.80
2018-03-26T03:47:49.189Z,19.50
2018-03-26T03:50:16.762Z,21.17
2018-03-26T03:52:44.345Z,21.33
2018-03-26T03:55:11.902Z,21.23
2018-03-26T03:57:39.472Z,20.77
2018-03-26T04:00:07.078Z,20.43
2018-03-26T04:02:36.633Z,22.10
2018-03-26T04:05:04.191Z,22.13
2018-03-26T04:07:31.796Z,23.33
2018-03-26T04:10:00.116Z,22.27
2018-03-26T04:12:27.748Z,23.20
2018-03-26T04:14:55.293Z,26.67
2018-03-26T04:17:23.648Z,24.13
2018-03-26T04:19:51.189Z,24.53
2018-03-26T04:22:18.800Z,23.23
2018-03-26T04:24:47.116Z,20.50
2018-03-26T04:27:14.702Z,22.13
2018-03-26T04:29:42.279Z,21.90
2018-03-26T04:32:10.642Z,22.13
2018-03-26T04:34:38.212Z,21.70
2018-03-26T04:37:05.757Z,20.00
2018-03-26T04:39:33.335Z,22.77
2018-03-26T04:42:01.699Z,20.63
2018-03-26T04:44:29.279Z,19.80
2018-03-26T04:46:57.619Z,21.07
2018-03-26T04:49:25.209Z,20.73
2018-03-26T04:51:53.546Z,23.37
2018-03-26T04:54:21.109Z,21.80
2018-03-26T04:56:48.658Z,23.93
2018-03-26T04:59:16.257Z,23.07
2018-03-26T05:01:43.817Z,22.47
2018-03-26T05:04:11.704Z,20.77
2018-03-26T05:06:39.285Z,21.70
2018-03-26T05:09:06.888Z,20.37
2018-03-26T05:11:34.472Z,20.93
2018-03-26T05:14:02.833Z,20.67
2018-03-26T05:16:30.394Z,21.90
2018-03-26T05:18:58.726Z,21.33
2018-03-26T05:21:26.273Z,22.00
2018-03-26T05:23:53.837Z,22.10
2018-03-26T05:26:21.382Z,24.17
2018-03-26T05:28:48.942Z,22.00
2018-03-26T05:31:16.478Z,22.60
2018-03-26T05:33:44.034Z,21.37
2018-03-26T05:36:11.591Z,24.37
2018-03-26T05:38:39.919Z,21.93
2018-03-26T05:41:07.459Z,23.00
2018-03-26T05:43:35.019Z,23.97
2018-03-26T05:46:02.551Z,24.07
2018-03-26T05:48:30.910Z,23.53
2018-03-26T05:50:58.458Z,20.67
2018-03-26T05:53:26.021Z,20.57
2018-03-26T05:55:53.555Z,21.37
2018-03-26T05:58:21.109Z,19.67
2018-03-26T06:00:48.651Z,19.17
2018-03-26T06:03:16.219Z,21.20
2018-03-26T06:05:43.766Z,21.00
2018-03-26T06:08:11.353Z,20.30
2018-03-26T06:10:38.895Z,19.57
2018-03-26T06:13:06.450Z,20.67
2018-03-26T06:15:34.787Z,19.67
2018-03-26T06:18:02.335Z,19.03
2018-03-26T06:20:29.906Z,19.63
2018-03-26T06:22:58.250Z,19.63
2018-03-26T06:25:25.781Z,18.20
2018-03-26T06:27:53.337Z,18.33
2018-03-26T06:30:20.869Z,18.83
2018-03-26T06:32:48.428Z,18.23
2018-03-26T06:35:16.754Z,18.03
2018-03-26T06:37:46.806Z,19.67
2018-03-26T06:40:15.109Z,19.43
2018-03-26T06:42:42.641Z,20.30
2018-03-26T06:45:10.955Z,19.20
2018-03-26T06:47:38.537Z,19.10
2018-03-26T06:50:06.102Z,19.63
2018-03-26T06:52:33.626Z,18.87
2018-03-26T06:55:01.933Z,18.07
2018-03-26T06:57:29.470Z,19.13
2018-03-26T06:59:57.022Z,17.93
2018-03-26T07:02:24.576Z,17.63
2018-03-26T07:04:52.126Z,19.20
2018-03-26T07:07:19.659Z,18.83
2018-03-26T07:09:47.205Z,20.60
2018-03-26T07:12:14.735Z,21.17
2018-03-26T07:14:42.289Z,24.37
2018-03-26T07:17:09.812Z,24.80
2018-03-26T07:19:37.365Z,22.33
2018-03-26T07:22:04.896Z,23.50
2018-03-26T07:24:32.445Z,21.27
2018-03-26T07:26:59.974Z,21.43
2018-03-26T07:29:27.521Z,22.77
2018-03-26T07:31:55.049Z,22.17
2018-03-26T07:34:22.589Z,23.83
2018-03-26T07:36:50.128Z,23.07
2018-03-26T07:39:17.666Z,22.43
2018-03-26T07:41:45.196Z,22.77
2018-03-26T07:44:12.762Z,23.70
2018-03-26T07:46:40.292Z,22.80
2018-03-26T07:49:08.610Z,22.93
2018-03-26T07:51:36.146Z,20.60
2018-03-26T07:54:03.698Z,19.63
2018-03-26T07:56:31.239Z,18.07
2018-03-26T07:58:58.783Z,17.93
2018-03-26T08:01:26.309Z,20.97
2018-03-26T08:03:53.856Z,19.47
2018-03-26T08:06:21.383Z,20.70
2018-03-26T08:08:49.696Z,20.93
2018-03-26T08:11:17.223Z,20.83
2018-03-26T08:13:45.537Z,19.53
2018-03-26T08:16:13.077Z,20.03
2018-03-26T08:18:40.626Z,21.83
2018-03-26T08:21:08.145Z,24.23
2018-03-26T08:23:35.689Z,23.63
2018-03-26T08:26:03.226Z,26.30
2018-03-26T08:28:30.775Z,25.60
2018-03-26T08:30:58.362Z,26.57
2018-03-26T08:33:25.857Z,24.97
2018-03-26T08:35:54.165Z,22.47
2018-03-26T08:38:21.702Z,20.37
2018-03-26T08:40:49.299Z,22.77
2018-03-26T08:43:17.745Z,25.37
2018-03-26T08:45:45.288Z,24.97
2018-03-26T08:48:13.579Z,23.17
2018-03-26T08:50:41.125Z,22.60
2018-03-26T08:53:09.474Z,21.93
2018-03-26T08:55:37.025Z,23.20
2018-03-26T08:58:04.545Z,22.90
2018-03-26T09:00:32.090Z,25.17
2018-03-26T09:02:59.626Z,23.03
2018-03-26T09:05:27.945Z,22.83
2018-03-26T09:07:55.489Z,24.03
2018-03-26T09:10:23.083Z,24.30
2018-03-26T09:12:50.614Z,24.93
2018-03-26T09:15:18.165Z,23.07
2018-03-26T09:17:45.692Z,23.43
2018-03-26T09:20:13.237Z,22.77
2018-03-26T09:22:40.766Z,23.70
2018-03-26T09:25:08.314Z,23.53
2018-03-26T09:27:35.840Z,24.10
2018-03-26T09:30:03.389Z,26.20
2018-03-26T09:32:31.670Z,23.53
2018-03-26T09:34:59.983Z,25.47
2018-03-26T09:37:27.525Z,25.80
2018-03-26T09:39:55.079Z,26.63
2018-03-26T09:42:22.639Z,25.17
2018-03-26T09:44:50.221Z,24.83
2018-03-26T09:47:17.745Z,25.63
2018-03-26T09:49:45.295Z,25.20
2018-03-26T09:52:12.826Z,24.53
2018-03-26T09:54:40.373Z,24.47
2018-03-26T09:57:07.909Z,26.23
2018-03-26T09:59:36.358Z,24.63
2018-03-26T10:02:03.897Z,24.33
2018-03-26T10:04:32.209Z,25.40
2018-03-26T10:06:59.778Z,26.57
2018-03-26T10:09:27.338Z,25.03
2018-03-26T10:11:54.883Z,24.50
2018-03-26T10:14:22.442Z,24.93
2018-03-26T10:16:49.969Z,26.27
2018-03-26T10:19:18.264Z,25.77
2018-03-26T10:21:45.817Z,24.70
2018-03-26T10:24:13.350Z,23.60
2018-03-26T10:26:42.501Z,24.53
2018-03-26T10:29:10.031Z,24.73
2018-03-26T10:31:37.586Z,24.00
2018-03-26T10:34:05.890Z,25.00
2018-03-26T10:36:33.491Z,23.93
2018-03-26T10:39:01.035Z,25.40
2018-03-26T10:41:28.604Z,24.57
2018-03-26T10:43:56.155Z,25.93
2018-03-26T10:46:23.732Z,24.60
2018-03-26T10:48:51.274Z,25.37
2018-03-26T10:51:18.830Z,25.30
2018-03-26T10:53:46.375Z,26.03
2018-03-26T10:56:13.934Z,26.07
2018-03-26T10:58:41.489Z,27.30
2018-03-26T11:01:09.031Z,26.77
2018-03-26T11:03:36.562Z,24.57
2018-03-26T11:06:04.902Z,25.73
2018-03-26T11:08:32.437Z,25.63
2018-03-26T11:11:00.002Z,24.87
2018-03-26T11:13:27.602Z,25.70
2018-03-26T11:15:55.159Z,23.90
2018-03-26T11:18:23.530Z,25.00
2018-03-26T11:20:51.882Z,26.50
2018-03-26T11:23:19.418Z,26.60
2018-03-26T11:25:46.984Z,26.10
2018-03-26T11:28:14.525Z,26.43
2018-03-26T11:30:42.130Z,27.03
2018-03-26T11:33:09.682Z,28.13
2018-03-26T11:35:37.262Z,25.30
2018-03-26T11:38:05.627Z,25.47
2018-03-26T11:40:33.222Z,25.00
2018-03-26T11:43:00.818Z,26.00
2018-03-26T11:45:28.392Z,25.70
2018-03-26T11:47:55.936Z,25.53
2018-03-26T11:50:23.506Z,26.63
2018-03-26T11:52:51.062Z,25.67
2018-03-26T11:55:18.625Z,27.53
2018-03-26T11:57:46.177Z,27.50
2018-03-26T12:00:13.754Z,24.63
2018-03-26T12:02:41.296Z,26.37
2018-03-26T12:05:08.870Z,24.93
2018-03-26T12:07:37.228Z,27.53
2018-03-26T12:10:04.810Z,27.20
2018-03-26T12:12:32.365Z,26.60
2018-03-26T12:15:00.027Z,24.87
2018-03-26T12:17:27.612Z,26.70
2018-03-26T12:20:07.742Z,26.07
2018-03-26T12:22:35.279Z,25.10
2018-03-26T12:25:08.542Z,24.07
2018-03-26T12:27:48.078Z,25.07
2018-03-26T12:30:18.122Z,24.67
2018-03-26T12:32:45.653Z,24.03
2018-03-26T12:35:24.777Z,26.23
2018-03-26T12:37:52.301Z,23.33
2018-03-26T12:40:31.623Z,23.93
2018-03-26T12:42:59.171Z,25.13
2018-03-26T12:45:38.537Z,25.63
2018-03-26T12:48:06.070Z,23.47
2018-03-26T12:50:45.374Z,24.87
2018-03-26T12:53:13.641Z,23.67
2018-03-26T12:55:41.172Z,22.97
2018-03-26T12:58:21.259Z,24.00
2018-03-26T13:01:01.287Z,22.67
2018-03-26T13:03:29.577Z,25.80
2018-03-26T13:05:57.106Z,24.07
2018-03-26T13:08:25.422Z,23.43
2018-03-26T13:10:52.961Z,21.37
2018-03-26T13:13:20.505Z,23.80
2018-03-26T13:15:48.798Z,23.30
2018-03-26T13:18:16.583Z,22.93
2018-03-26T13:20:44.108Z,23.33
2018-03-26T13:23:12.442Z,21.77
2018-03-26T13:25:41.233Z,23.00
2018-03-26T13:28:08.879Z,22.37
2018-03-26T13:30:36.390Z,24.77
2018-03-26T13:33:04.705Z,22.50
2018-03-26T13:35:32.233Z,21.80
2018-03-26T13:37:59.782Z,22.60
2018-03-26T13:40:28.082Z,21.20
2018-03-26T13:42:55.637Z,21.90
2018-03-26T13:45:23.177Z,22.00
2018-03-26T13:47:51.495Z,21.90
2018-03-26T13:50:19.051Z,21.03
2018-03-26T13:52:46.592Z,22.40
2018-03-26T13:55:14.142Z,22.40
2018-03-26T13:57:41.678Z,21.80
2018-03-26T14:00:10.030Z,22.93
2018-03-26T14:02:37.562Z,21.90
2018-03-26T14:05:05.122Z,21.30
2018-03-26T14:07:32.656Z,20.63
2018-03-26T14:10:12.026Z,21.80
2018-03-26T14:12:51.326Z,21.50
2018-03-26T14:15:30.869Z,25.27
2018-03-26T14:17:59.193Z,24.43
2018-03-26T14:20:27.610Z,25.47
2018-03-26T14:22:55.138Z,27.03
2018-03-26T14:25:22.711Z,25.63
2018-03-26T14:27:51.047Z,23.57
2018-03-26T14:30:18.627Z,24.63
2018-03-26T14:32:46.154Z,23.93
2018-03-26T14:38:28.692Z,24.23
2018-03-26T14:40:58.168Z,26.13
2018-03-26T14:43:25.798Z,25.40
2018-03-26T14:45:54.166Z,25.93
2018-03-26T14:48:21.722Z,26.10
2018-03-26T14:50:49.323Z,26.97
2018-03-26T14:53:16.888Z,26.53
2018-03-26T14:55:44.473Z,26.30
2018-03-26T14:58:12.010Z,25.70
2018-03-26T15:00:39.549Z,26.47
2018-03-26T15:03:07.168Z,25.33
2018-03-26T15:05:35.475Z,24.63
2018-03-26T15:08:03.034Z,25.97
2018-03-26T15:10:30.562Z,26.30
2018-03-26T15:12:58.114Z,25.07
2018-03-26T15:15:25.645Z,24.93
2018-03-26T15:17:54.100Z,25.90
2018-03-26T15:20:21.637Z,26.77
2018-03-26T15:22:49.202Z,25.20
2018-03-26T15:25:17.726Z,26.07
2018-03-26T15:27:45.276Z,27.23
2018-03-26T15:30:12.797Z,26.20
2018-03-26T15:32:41.130Z,25.80
2018-03-26T15:35:08.664Z,26.97
2018-03-26T15:37:36.214Z,26.67
2018-03-26T15:40:06.624Z,25.90
2018-03-26T15:42:36.926Z,27.03
2018-03-26T15:45:04.508Z,26.30
2018-03-26T15:47:32.122Z,27.07
2018-03-26T15:49:59.741Z,24.67
2018-03-26T15:52:27.314Z,25.23
2018-03-26T15:54:54.854Z,25.73
2018-03-26T15:57:22.429Z,24.27
2018-03-26T15:59:49.973Z,25.23
2018-03-26T16:02:17.545Z,22.23
2018-03-26T16:04:45.850Z,22.87
2018-03-26T16:07:13.421Z,21.30
2018-03-26T16:09:40.962Z,21.97
2018-03-26T16:12:08.526Z,23.17
2018-03-26T16:14:36.061Z,21.90
2018-03-26T16:17:03.609Z,28.50
2018-03-26T16:19:31.141Z,23.03
2018-03-26T16:21:58.697Z,28.10
2018-03-26T16:24:27.006Z,26.23
2018-03-26T16:26:54.562Z,22.53
2018-03-26T16:29:22.097Z,24.60
2018-03-26T16:31:50.422Z,25.70
2018-03-26T16:34:17.950Z,24.07
2018-03-26T16:36:45.512Z,23.83
2018-03-26T16:39:13.053Z,22.03
2018-03-26T16:41:47.353Z,23.50
2018-03-26T16:44:15.653Z,22.17
2018-03-26T16:46:43.220Z,21.43
2018-03-26T16:49:10.759Z,21.93
2018-03-26T16:51:38.313Z,22.83
2018-03-26T16:54:06.621Z,22.27
2018-03-26T16:56:34.922Z,21.27
2018-03-26T16:59:02.465Z,21.67
2018-03-26T17:01:29.994Z,20.17
2018-03-26T17:03:57.545Z,20.77
2018-03-26T17:06:25.086Z,22.37
2018-03-26T17:08:53.403Z,19.97
2018-03-26T17:11:20.942Z,20.53
2018-03-26T17:13:48.498Z,20.43
2018-03-26T17:16:16.054Z,20.17
2018-03-26T17:18:44.395Z,21.77
2018-03-26T17:21:11.942Z,20.97
2018-03-26T17:23:39.510Z,20.63
2018-03-26T17:26:07.050Z,20.83
2018-03-26T17:28:34.610Z,21.07
2018-03-26T17:31:02.222Z,20.10
2018-03-26T17:33:29.781Z,19.50
2018-03-26T17:35:58.073Z,20.13
2018-03-26T17:38:25.624Z,20.17
2018-03-26T17:40:53.151Z,22.13
2018-03-26T17:43:20.701Z,20.10
2018-03-26T17:45:48.266Z,19.73
2018-03-26T17:48:15.832Z,21.80
2018-03-26T17:50:44.137Z,20.00
2018-03-26T17:53:11.701Z,22.73
2018-03-26T17:55:39.237Z,43.07
2018-03-26T17:58:07.562Z,20.13
2018-03-26T18:00:35.094Z,20.50
2018-03-26T18:03:02.652Z,20.47
2018-03-26T18:05:30.182Z,19.67
2018-03-26T18:07:58.509Z,18.77
2018-03-26T18:10:26.041Z,17.60
2018-03-26T18:12:53.612Z,18.00
2018-03-26T18:15:21.142Z,20.07
2018-03-26T18:17:49.452Z,20.17
2018-03-26T18:20:16.983Z,20.20
2018-03-26T18:22:44.530Z,18.77
2018-03-26T18:25:12.830Z,19.00
2018-03-26T18:27:40.372Z,19.87
2018-03-26T18:30:08.677Z,19.13
2018-03-26T18:32:36.229Z,18.80
2018-03-26T18:35:03.759Z,18.23
2018-03-26T18:37:32.126Z,19.83
2018-03-26T18:39:59.617Z,18.97
2018-03-26T18:42:27.162Z,19.43
2018-03-26T18:44:54.696Z,18.80
2018-03-26T18:47:22.231Z,19.87
2018-03-26T18:49:49.775Z,21.00
2018-03-26T18:52:17.309Z,21.40
2018-03-26T18:54:44.858Z,22.03
2018-03-26T18:57:12.391Z,20.63
2018-03-26T18:59:39.942Z,23.27
2018-03-26T19:02:07.469Z,22.27
2018-03-26T19:04:35.021Z,22.83
2018-03-26T19:07:02.544Z,21.23
2018-03-26T19:09:30.861Z,22.90
2018-03-26T19:11:58.385Z,23.03
2018-03-26T19:14:25.937Z,22.40
2018-03-26T19:16:53.457Z,22.03
2018-03-26T19:19:20.999Z,20.33
2018-03-26T19:21:48.533Z,21.83
2018-03-26T19:24:16.087Z,21.67
2018-03-26T19:26:43.618Z,22.13
2018-03-26T19:29:11.937Z,21.70
2018-03-26T19:31:39.465Z,22.73
2018-03-26T19:34:07.013Z,23.63
2018-03-26T19:36:35.306Z,23.77
2018-03-26T19:39:02.858Z,23.30
2018-03-26T19:41:30.393Z,22.77
2018-03-26T19:43:57.937Z,25.20
2018-03-26T19:46:25.689Z,22.40
2018-03-26T19:48:53.234Z,24.63
2018-03-26T19:51:20.756Z,22.37
2018-03-26T19:53:48.309Z,24.43
2018-03-26T19:56:16.597Z,23.57
2018-03-26T19:58:44.152Z,23.60
2018-03-26T20:01:11.685Z,23.63
2018-03-26T20:03:39.241Z,23.97
2018-03-26T20:06:07.541Z,23.47
2018-03-26T20:08:35.090Z,23.43
2018-03-26T20:11:03.377Z,22.33
2018-03-26T20:13:30.925Z,24.07
2018-03-26T20:15:59.217Z,25.43
2018-03-26T20:18:26.770Z,24.03
2018-03-26T20:20:54.307Z,24.20
2018-03-26T20:23:22.625Z,23.93
2018-03-26T20:25:50.145Z,24.70
2018-03-26T20:28:18.462Z,25.43
2018-03-26T20:30:45.987Z,23.23
2018-03-26T20:33:14.303Z,22.67
2018-03-26T20:35:41.833Z,23.73
2018-03-26T20:38:09.400Z,24.67
2018-03-26T20:40:36.930Z,23.70
2018-03-26T20:43:05.229Z,25.20
2018-03-26T20:45:32.786Z,25.87
2018-03-26T20:48:00.319Z,24.67
2018-03-26T20:50:28.633Z,25.17
2018-03-26T20:52:56.162Z,25.67
2018-03-26T20:55:24.478Z,27.03
2018-03-26T20:57:52.010Z,25.20
2018-03-26T21:00:19.561Z,25.13
2018-03-26T21:02:47.854Z,23.93
2018-03-26T21:05:15.413Z,24.57
2018-03-26T21:07:42.948Z,26.17
2018-03-26T21:10:10.540Z,25.20
2018-03-26T21:12:38.101Z,24.97
2018-03-26T21:15:05.658Z,26.10
2018-03-26T21:17:33.206Z,25.30
2018-03-26T21:20:00.752Z,25.57
2018-03-26T21:22:28.293Z,24.37
2018-03-26T21:24:56.631Z,26.00
2018-03-26T21:27:24.173Z,26.07
2018-03-26T21:29:51.749Z,24.83
2018-03-26T21:32:19.276Z,24.57
2018-03-26T21:34:46.832Z,26.17
2018-03-26T21:37:14.370Z,27.53
2018-03-26T21:39:41.988Z,25.47
2018-03-26T21:42:09.568Z,26.00
2018-03-26T21:44:37.931Z,27.00
2018-03-26T21:47:05.520Z,25.90
2018-03-26T21:49:33.865Z,25.60
2018-03-26T21:52:01.429Z,26.23
2018-03-26T21:54:29.026Z,26.80
2018-03-26T21:56:56.589Z,23.87
2018-03-26T21:59:24.176Z,26.90
2018-03-26T22:01:51.741Z,25.10
2018-03-26T22:04:19.312Z,27.17
2018-03-26T22:06:46.872Z,26.83
2018-03-26T22:09:14.450Z,27.23
2018-03-26T22:11:42.001Z,26.53
2018-03-26T22:14:09.609Z,25.47
2018-03-26T22:16:37.173Z,25.93
2018-03-26T22:19:04.757Z,25.43
2018-03-26T22:21:32.314Z,25.53
2018-03-26T22:23:59.886Z,26.13
2018-03-26T22:26:27.452Z,28.10
2018-03-26T22:28:55.018Z,27.20
2018-03-26T22:31:22.617Z,27.80
2018-03-26T22:33:50.169Z,27.23
2018-03-26T22:36:17.718Z,25.70
2018-03-26T22:38:45.291Z,26.97
2018-03-26T22:41:12.842Z,26.73
2018-03-26T22:43:40.393Z,25.33
2018-03-26T22:46:08.713Z,26.30
2018-03-26T22:48:36.245Z,26.00
2018-03-26T22:51:03.811Z,27.43
2018-03-26T22:53:31.353Z,25.40
2018-03-26T22:55:58.917Z,24.43
2018-03-26T22:58:26.454Z,26.10
2018-03-26T23:00:54.808Z,27.00
2018-03-26T23:03:22.358Z,26.63
2018-03-26T23:05:49.945Z,28.27
2018-03-26T23:08:17.501Z,28.93
2018-03-26T23:10:45.844Z,28.87
2018-03-26T23:13:13.387Z,28.27
2018-03-26T23:15:40.955Z,28.20
2018-03-26T23:18:08.505Z,28.77
2018-03-26T23:20:36.097Z,28.30
2018-03-26T23:23:03.670Z,29.47
2018-03-26T23:25:31.256Z,29.67
2018-03-26T23:27:58.815Z,27.10
2018-03-26T23:30:26.441Z,27.63
2018-03-26T23:32:54.127Z,29.50
2018-03-26T23:35:21.689Z,29.33
2018-03-26T23:37:49.999Z,30.17
2018-03-26T23:40:17.564Z,29.63
2018-03-26T23:42:45.118Z,28.70
2018-03-26T23:45:12.732Z,27.87
2018-03-26T23:47:40.350Z,27.07
2018-03-26T23:50:07.938Z,28.73
2018-03-26T23:52:35.486Z,27.37
2018-03-26T23:55:03.162Z,28.47
2018-03-26T23:57:30.729Z,28.10
2018-03-26T23:59:59.114Z,28.17
